createdAt,value
2022-12-31T00:00:57.060Z,97.88
2022-12-31T00:17:31.877Z,98.14
2022-12-31T01:18:22.318Z,98.47
2022-12-31T01:51:57.854Z,99.20
2022-12-31T01:59:05.093Z,99.50
2022-12-31T02:14:30.810Z,99.27
2022-12-31T02:17:36.911Z,99.11
2022-12-31T02:21:06.896Z,98.85
2022-12-31T02:27:50.210Z,97.99
2022-12-31T02:31:03.145Z,97.47
2022-12-31T02:37:40.522Z,97.99
2022-12-31T02:54:07.685Z,98.41
2022-12-31T02:57:24.321Z,98.96
2022-12-31T03:12:11.901Z,98.17
2022-12-31T03:19:36.329Z,97.53
2022-12-31T03:23:13.319Z,97.37
2022-12-31T03:26:42.187Z,97.32
2022-12-31T03:40:59.424Z,97.38
2022-12-31T03:43:54.473Z,96.96
2022-12-31T04:03:50.851Z,97.91
2022-12-31T04:23:14.345Z,97.42
2022-12-31T05:05:04.696Z,99.14
2022-12-31T05:23:57.111Z,97.69
2022-12-31T05:27:08.635Z,98.43
2022-12-31T05:29:46.423Z,100.00
2022-12-31T05:32:51.617Z,100.00
2022-12-31T05:35:47.646Z,100.00
2022-12-31T05:39:36.241Z,100.00
2022-12-31T05:42:59.360Z,100.00
2022-12-31T05:46:22.427Z,100.00
2022-12-31T05:49:02.367Z,100.00
2022-12-31T06:00:27.007Z,100.00
2022-12-31T06:03:12.871Z,100.00
2022-12-31T06:05:57.363Z,100.00
2022-12-31T06:08:27.497Z,100.00
2022-12-31T06:10:57.859Z,100.00
2022-12-31T06:13:27.973Z,100.00
2022-12-31T06:16:01.047Z,100.00
2022-12-31T06:18:30.994Z,100.00
2022-12-31T06:21:01.537Z,100.00
2022-12-31T06:23:31.533Z,100.00
2022-12-31T06:26:04.448Z,100.00
2022-12-31T06:28:34.415Z,100.00
2022-12-31T06:31:09.329Z,100.00
2022-12-31T06:33:39.839Z,100.00
2022-12-31T06:36:14.501Z,100.00
2022-12-31T06:38:46.245Z,100.00
2022-12-31T06:41:18.432Z,100.00
2022-12-31T06:43:48.729Z,100.00
2022-12-31T06:46:21.772Z,100.00
2022-12-31T06:48:51.807Z,100.00
2022-12-31T06:51:24.279Z,100.00
2022-12-31T06:53:54.976Z,100.00
2022-12-31T06:56:34.084Z,100.00
2022-12-31T06:59:06.383Z,100.00
2022-12-31T07:01:52.181Z,100.00
2022-12-31T07:04:43.649Z,100.00
2022-12-31T07:07:24.116Z,100.00
2022-12-31T07:10:03.327Z,100.00
2022-12-31T07:12:50.744Z,100.00
2022-12-31T07:15:33.999Z,100.00
2022-12-31T07:18:17.810Z,99.42
2022-12-31T07:20:48.597Z,100.00
2022-12-31T07:23:19.647Z,100.00
2022-12-31T07:25:57.415Z,99.72
2022-12-31T07:28:41.501Z,99.98
2022-12-31T07:31:18.958Z,99.66
2022-12-31T07:34:01.592Z,98.71
2022-12-31T07:36:53.616Z,97.62
2022-12-31T07:39:34.795Z,97.68
2022-12-31T07:42:14.184Z,97.57
2022-12-31T07:44:57.336Z,96.98
2022-12-31T07:50:46.149Z,97.35
2022-12-31T07:53:38.026Z,95.28
2022-12-31T07:56:26.489Z,95.90
2022-12-31T07:59:10.843Z,95.42
2022-12-31T08:01:57.090Z,94.13
2022-12-31T08:04:36.276Z,93.65
2022-12-31T08:07:20.118Z,94.22
2022-12-31T08:10:05.891Z,94.40
2022-12-31T08:12:47.728Z,94.03
2022-12-31T08:15:24.147Z,94.17
2022-12-31T08:17:57.804Z,93.86
2022-12-31T08:20:28.859Z,93.13
2022-12-31T08:23:22.778Z,93.45
2022-12-31T08:26:14.111Z,92.39
2022-12-31T08:29:03.293Z,92.26
2022-12-31T08:31:43.820Z,92.55
2022-12-31T08:34:23.261Z,92.00
2022-12-31T08:36:58.048Z,92.86
2022-12-31T08:39:46.426Z,92.37
2022-12-31T08:42:24.796Z,92.58
2022-12-31T08:45:03.708Z,91.80
2022-12-31T08:47:43.684Z,92.02
2022-12-31T08:50:17.573Z,92.60
2022-12-31T08:52:48.634Z,91.99
2022-12-31T08:55:22.582Z,90.54
2022-12-31T08:58:05.756Z,90.73
2022-12-31T09:00:37.891Z,91.07
2022-12-31T09:03:26.002Z,89.83
2022-12-31T09:06:03.252Z,90.03
2022-12-31T09:08:44.347Z,89.00
2022-12-31T09:11:23.623Z,88.63
2022-12-31T09:15:08.100Z,88.69
2022-12-31T09:18:18.175Z,87.92
2022-12-31T09:21:00.940Z,87.57
2022-12-31T09:23:43.712Z,86.57
2022-12-31T09:26:48.919Z,86.49
2022-12-31T09:29:34.216Z,85.80
2022-12-31T09:32:20.445Z,85.24
2022-12-31T09:43:25.591Z,81.35
2022-12-31T09:46:41.500Z,80.67
2022-12-31T09:49:48.062Z,79.73
2022-12-31T09:52:26.948Z,79.90
2022-12-31T09:55:06.689Z,79.65
2022-12-31T09:57:51.922Z,79.56
2022-12-31T10:00:34.051Z,78.92
2022-12-31T10:03:31.357Z,79.37
2022-12-31T10:06:17.487Z,79.05
2022-12-31T10:09:04.048Z,78.53
2022-12-31T10:11:54.174Z,78.55
2022-12-31T10:14:46.936Z,79.23
2022-12-31T10:17:35.427Z,78.61
2022-12-31T10:20:33.865Z,78.25
2022-12-31T10:23:27.481Z,77.91
2022-12-31T10:26:30.208Z,77.31
2022-12-31T10:29:36.237Z,76.61
2022-12-31T10:32:56.225Z,76.93
2022-12-31T10:35:42.040Z,76.10
2022-12-31T10:38:37.611Z,76.60
2022-12-31T10:41:55.117Z,75.79
2022-12-31T10:44:56.345Z,75.07
2022-12-31T10:48:11.968Z,74.25
2022-12-31T10:51:26.384Z,73.70
2022-12-31T10:54:22.527Z,74.33
2022-12-31T10:57:39.231Z,74.58
2022-12-31T11:00:24.620Z,73.93
2022-12-31T11:03:36.062Z,73.88
2022-12-31T11:06:40.070Z,73.72
2022-12-31T11:10:01.299Z,73.71
2022-12-31T11:13:04.644Z,73.45
2022-12-31T11:15:50.810Z,74.09
2022-12-31T11:18:33.034Z,74.17
2022-12-31T11:21:28.227Z,74.22
2022-12-31T11:24:37.722Z,73.96
2022-12-31T11:27:47.663Z,73.40
2022-12-31T11:39:43.199Z,73.31
2022-12-31T11:58:15.689Z,73.28
2022-12-31T12:00:55.885Z,72.39
2022-12-31T12:03:26.920Z,71.46
2022-12-31T12:05:59.833Z,71.84
2022-12-31T12:08:35.423Z,71.25
2022-12-31T12:11:11.846Z,70.76
2022-12-31T12:13:45.430Z,71.32
2022-12-31T12:16:16.519Z,71.32
2022-12-31T12:18:49.445Z,70.94
2022-12-31T12:21:21.595Z,70.58
2022-12-31T12:23:58.353Z,71.35
2022-12-31T12:26:32.610Z,71.51
2022-12-31T12:29:12.423Z,71.60
2022-12-31T12:31:43.017Z,71.51
2022-12-31T12:34:26.116Z,70.73
2022-12-31T12:36:56.410Z,70.97
2022-12-31T12:39:28.992Z,71.56
2022-12-31T12:42:12.900Z,71.65
2022-12-31T12:44:48.229Z,70.73
2022-12-31T12:47:20.874Z,70.99
2022-12-31T12:49:55.911Z,70.70
2022-12-31T12:53:11.198Z,70.51
2022-12-31T12:55:51.486Z,70.95
2022-12-31T13:41:58.262Z,67.54
2022-12-31T13:48:24.037Z,67.11
2022-12-31T13:51:21.547Z,67.50
2022-12-31T14:25:03.447Z,67.18
2022-12-31T14:29:08.091Z,67.29
2022-12-31T14:32:44.643Z,68.58
2022-12-31T14:47:10.955Z,69.81
2022-12-31T14:54:46.719Z,70.57
2022-12-31T15:09:43.565Z,71.49
2022-12-31T15:13:39.275Z,71.59
2022-12-31T15:17:03.762Z,71.80
2022-12-31T15:20:30.799Z,72.76
2022-12-31T15:27:46.007Z,72.13
2022-12-31T15:46:06.068Z,71.43
2022-12-31T15:48:49.004Z,71.67
2022-12-31T15:51:30.690Z,72.02
2022-12-31T15:54:30.327Z,72.88
2022-12-31T15:57:09.204Z,73.72
2022-12-31T15:59:46.924Z,74.16
2022-12-31T16:02:27.486Z,73.88
2022-12-31T16:05:30.432Z,73.73
2022-12-31T16:08:47.902Z,73.55
2022-12-31T16:22:18.756Z,73.92
2022-12-31T16:27:56.656Z,73.68
2022-12-31T16:30:43.103Z,73.41
2022-12-31T16:33:22.374Z,72.75
2022-12-31T16:36:05.326Z,73.02
2022-12-31T16:39:15.494Z,72.82
2022-12-31T16:41:48.181Z,72.26
2022-12-31T16:44:29.272Z,71.17
2022-12-31T16:47:22.354Z,71.08
2022-12-31T16:50:04.306Z,69.32
2022-12-31T16:52:56.072Z,69.73
2022-12-31T16:55:38.427Z,69.69
2022-12-31T16:59:23.883Z,68.80
2022-12-31T17:06:04.968Z,69.16
2022-12-31T17:09:14.780Z,68.40
2022-12-31T17:12:08.790Z,67.80
2022-12-31T17:16:15.658Z,68.01
2022-12-31T17:29:06.617Z,67.79
2022-12-31T17:47:56.087Z,67.52
2022-12-31T18:28:54.593Z,67.07
2022-12-31T19:09:58.843Z,72.09
2022-12-31T19:12:43.207Z,72.18
2022-12-31T19:15:33.105Z,71.69
2022-12-31T19:18:09.058Z,72.42
2022-12-31T19:45:17.163Z,71.93
2022-12-31T19:48:38.129Z,71.71
2022-12-31T19:59:08.596Z,71.46
2022-12-31T20:02:11.112Z,71.09
2022-12-31T20:04:52.692Z,71.23
2022-12-31T20:16:26.093Z,70.45
2022-12-31T20:35:24.818Z,68.92
2022-12-31T21:14:57.377Z,65.09
2022-12-31T21:29:41.842Z,64.55
2022-12-31T22:43:15.860Z,65.16
2022-12-31T22:46:42.393Z,63.56
2022-12-31T23:16:29.096Z,63.07
2022-12-31T23:37:23.684Z,62.62
